FLI434 EKVG-ENGM
Flight info
| Callsign | FLI434 |
|---|---|
| Flight time | 1h 24m |
| Altitude | 39000 |
| Route | ODEVA DCT ERSER/N0438F390 DCT ADOPI |
| Aircraft | A320/M-SDE3FGHIRWY/LB1 |
Departure
| Time | 2026-04-30 21:14 |
|---|---|
| Airport | Vágar Airport (EKVG) |
Arrival
| Time | 2026-04-30 22:38 |
|---|---|
| Airport | Oslo-Gardermoen International Airport (ENGM) |
| Time | Latitude | Longitude | Altitude | Speed | Heading |
|---|---|---|---|---|---|
| 2026-04-30 20:53 | 62.06711 | -7.28024 | 289 ft | 0 kts | 76° |
| 2026-04-30 21:06 | 62.06708 | -7.28058 | 293 ft | 4 kts | 78° |
| 2026-04-30 21:06 | 62.06703 | -7.28114 | 294 ft | 4 kts | 87° |
| 2026-04-30 21:06 | 62.06705 | -7.28170 | 293 ft | 4 kts | 114° |
| 2026-04-30 21:07 | 62.06709 | -7.28185 | 295 ft | 1 kts | 123° |
| 2026-04-30 21:08 | 62.06709 | -7.28186 | 295 ft | 0 kts | 123° |
| 2026-04-30 21:09 | 62.06709 | -7.28185 | 295 ft | 1 kts | 123° |
| 2026-04-30 21:09 | 62.06698 | -7.28154 | 292 ft | 0 kts | 129° |
| 2026-04-30 21:09 | 62.06697 | -7.28152 | 292 ft | 2 kts | 132° |
| 2026-04-30 21:10 | 62.06658 | -7.28107 | 293 ft | 7 kts | 160° |
| 2026-04-30 21:10 | 62.06611 | -7.28091 | 289 ft | 9 kts | 178° |
| 2026-04-30 21:10 | 62.06528 | -7.28123 | 290 ft | 15 kts | 202° |
| 2026-04-30 21:10 | 62.06457 | -7.28118 | 293 ft | 9 kts | 129° |
| 2026-04-30 21:11 | 62.06429 | -7.28004 | 294 ft | 12 kts | 118° |
| 2026-04-30 21:11 | 62.06375 | -7.27787 | 298 ft | 17 kts | 118° |
| 2026-04-30 21:11 | 62.06317 | -7.27551 | 294 ft | 18 kts | 117° |
| 2026-04-30 21:11 | 62.06251 | -7.27290 | 282 ft | 22 kts | 118° |
| 2026-04-30 21:12 | 62.06173 | -7.26977 | 274 ft | 26 kts | 118° |
| 2026-04-30 21:12 | 62.06086 | -7.26626 | 266 ft | 28 kts | 117° |
| 2026-04-30 21:12 | 62.06005 | -7.26298 | 251 ft | 20 kts | 117° |
| 2026-04-30 21:12 | 62.05954 | -7.26056 | 244 ft | 13 kts | 99° |
| 2026-04-30 21:13 | 62.05941 | -7.26050 | 245 ft | 3 kts | 297° |
| 2026-04-30 21:13 | 62.05959 | -7.26110 | 245 ft | 5 kts | 294° |
| 2026-04-30 21:13 | 62.05964 | -7.26133 | 245 ft | 2 kts | 295° |
| 2026-04-30 21:13 | 62.06071 | -7.26568 | 264 ft | 72 kts | 298° |
| 2026-04-30 21:14 | 62.06421 | -7.27971 | 316 ft | 137 kts | 299° |
| 2026-04-30 21:14 | 62.06901 | -7.29890 | 875 ft | 155 kts | 298° |
| 2026-04-30 21:14 | 62.07394 | -7.31988 | 1754 ft | 158 kts | 290° |
| 2026-04-30 21:14 | 62.07739 | -7.34275 | 2428 ft | 170 kts | 286° |
| 2026-04-30 21:15 | 62.08126 | -7.36847 | 2777 ft | 193 kts | 287° |
| 2026-04-30 21:15 | 62.08567 | -7.39720 | 3119 ft | 218 kts | 287° |
| 2026-04-30 21:15 | 62.09048 | -7.42811 | 3967 ft | 222 kts | 285° |
| 2026-04-30 21:15 | 62.09493 | -7.46004 | 4860 ft | 225 kts | 277° |
| 2026-04-30 21:16 | 62.09591 | -7.49332 | 5775 ft | 223 kts | 265° |
| 2026-04-30 21:16 | 62.09352 | -7.52612 | 6703 ft | 224 kts | 253° |
| 2026-04-30 21:16 | 62.08781 | -7.55686 | 7579 ft | 225 kts | 242° |
| 2026-04-30 21:16 | 62.07902 | -7.58460 | 8491 ft | 227 kts | 232° |
| 2026-04-30 21:17 | 62.06760 | -7.60839 | 9351 ft | 233 kts | 221° |
| 2026-04-30 21:17 | 62.05374 | -7.62614 | 10342 ft | 232 kts | 208° |
| 2026-04-30 21:17 | 62.03839 | -7.63630 | 11203 ft | 237 kts | 196° |
| 2026-04-30 21:17 | 62.02164 | -7.63904 | 12014 ft | 246 kts | 185° |
| 2026-04-30 21:18 | 62.00436 | -7.63310 | 12770 ft | 258 kts | 171° |
| 2026-04-30 21:18 | 61.98746 | -7.61747 | 13558 ft | 272 kts | 157° |
| 2026-04-30 21:18 | 61.97225 | -7.59183 | 14282 ft | 287 kts | 141° |
| 2026-04-30 21:18 | 61.96036 | -7.55638 | 14964 ft | 303 kts | 124° |
| 2026-04-30 21:19 | 61.95356 | -7.51336 | 15629 ft | 319 kts | 106° |
| 2026-04-30 21:19 | 61.95091 | -7.46530 | 16008 ft | 338 kts | 103° |
| 2026-04-30 21:19 | 61.94821 | -7.41351 | 16151 ft | 362 kts | 102° |
| 2026-04-30 21:19 | 61.94536 | -7.35932 | 16279 ft | 383 kts | 102° |
| 2026-04-30 21:20 | 61.94234 | -7.30188 | 16637 ft | 396 kts | 102° |
| 2026-04-30 21:20 | 61.93932 | -7.24337 | 17212 ft | 402 kts | 102° |
| 2026-04-30 21:20 | 61.93625 | -7.18395 | 17821 ft | 407 kts | 103° |
| 2026-04-30 21:20 | 61.93309 | -7.12373 | 18497 ft | 409 kts | 103° |
| 2026-04-30 21:21 | 61.92988 | -7.06390 | 19061 ft | 413 kts | 104° |
| 2026-04-30 21:21 | 61.92657 | -7.00304 | 19633 ft | 416 kts | 104° |
| 2026-04-30 21:21 | 61.91974 | -6.87996 | 20764 ft | 423 kts | 104° |
| 2026-04-30 21:22 | 61.91621 | -6.81820 | 21336 ft | 426 kts | 105° |
| 2026-04-30 21:22 | 61.90514 | -6.62822 | 23019 ft | 436 kts | 105° |
| 2026-04-30 21:23 | 61.90168 | -6.56481 | 23541 ft | 441 kts | 104° |
| 2026-04-30 21:23 | 61.89884 | -6.49956 | 24010 ft | 445 kts | 103° |
| 2026-04-30 21:23 | 61.89441 | -6.36699 | 24808 ft | 454 kts | 102° |
| 2026-04-30 21:24 | 61.89223 | -6.29985 | 25224 ft | 456 kts | 102° |
| 2026-04-30 21:24 | 61.88991 | -6.23329 | 25627 ft | 459 kts | 102° |
| 2026-04-30 21:24 | 61.88738 | -6.16551 | 26031 ft | 461 kts | 102° |
| 2026-04-30 21:24 | 61.88469 | -6.09725 | 26430 ft | 463 kts | 103° |
| 2026-04-30 21:25 | 61.87898 | -5.96093 | 27205 ft | 468 kts | 103° |
| 2026-04-30 21:25 | 61.87602 | -5.89183 | 27592 ft | 470 kts | 103° |
| 2026-04-30 21:25 | 61.87309 | -5.82320 | 27964 ft | 473 kts | 103° |
| 2026-04-30 21:26 | 61.86711 | -5.68326 | 28672 ft | 477 kts | 102° |
| 2026-04-30 21:26 | 61.86410 | -5.61356 | 29027 ft | 479 kts | 102° |
| 2026-04-30 21:27 | 61.85787 | -5.47200 | 29703 ft | 484 kts | 102° |
| 2026-04-30 21:27 | 61.85471 | -5.40145 | 30035 ft | 486 kts | 103° |
| 2026-04-30 21:27 | 61.85145 | -5.32978 | 30330 ft | 488 kts | 103° |
| 2026-04-30 21:28 | 61.84483 | -5.18684 | 30845 ft | 491 kts | 103° |
| 2026-04-30 21:28 | 61.84142 | -5.11442 | 31100 ft | 493 kts | 103° |
| 2026-04-30 21:28 | 61.83442 | -4.96945 | 31546 ft | 496 kts | 103° |
| 2026-04-30 21:29 | 61.83087 | -4.89692 | 31842 ft | 495 kts | 103° |
| 2026-04-30 21:29 | 61.82010 | -4.68094 | 32876 ft | 491 kts | 103° |
| 2026-04-30 21:30 | 61.81277 | -4.53813 | 33532 ft | 489 kts | 103° |
| 2026-04-30 21:31 | 61.80159 | -4.32408 | 34463 ft | 487 kts | 104° |
| 2026-04-30 21:31 | 61.79383 | -4.18119 | 34999 ft | 486 kts | 103° |
| 2026-04-30 21:32 | 61.78603 | -4.03979 | 35531 ft | 485 kts | 103° |
| 2026-04-30 21:32 | 61.78205 | -3.96883 | 35788 ft | 484 kts | 103° |
| 2026-04-30 21:32 | 61.77809 | -3.89872 | 36036 ft | 484 kts | 103° |
| 2026-04-30 21:32 | 61.77408 | -3.82807 | 36276 ft | 483 kts | 103° |
| 2026-04-30 21:33 | 61.77007 | -3.75786 | 36516 ft | 483 kts | 103° |
| 2026-04-30 21:33 | 61.76186 | -3.61694 | 36974 ft | 482 kts | 103° |
| 2026-04-30 21:33 | 61.75772 | -3.54656 | 37172 ft | 481 kts | 103° |
| 2026-04-30 21:34 | 61.75361 | -3.47711 | 37397 ft | 481 kts | 103° |
| 2026-04-30 21:34 | 61.74657 | -3.36019 | 37738 ft | 480 kts | 103° |
| 2026-04-30 21:34 | 61.74230 | -3.28997 | 37944 ft | 480 kts | 103° |
| 2026-04-30 21:35 | 61.73806 | -3.22067 | 38136 ft | 480 kts | 103° |
| 2026-04-30 21:35 | 61.73233 | -3.12794 | 38391 ft | 480 kts | 103° |
| 2026-04-30 21:35 | 61.72946 | -3.08150 | 38517 ft | 479 kts | 103° |
| 2026-04-30 21:35 | 61.72509 | -3.01126 | 38700 ft | 479 kts | 103° |
| 2026-04-30 21:36 | 61.72067 | -2.94148 | 38867 ft | 479 kts | 103° |
| 2026-04-30 21:36 | 61.71615 | -2.87183 | 39000 ft | 479 kts | 103° |
| 2026-04-30 21:37 | 61.70252 | -2.66399 | 39190 ft | 480 kts | 103° |
| 2026-04-30 21:37 | 61.69788 | -2.59398 | 39193 ft | 480 kts | 103° |
| 2026-04-30 21:37 | 61.68862 | -2.45423 | 39195 ft | 480 kts | 103° |
| 2026-04-30 21:38 | 61.67925 | -2.31519 | 39197 ft | 480 kts | 103° |
| 2026-04-30 21:38 | 61.66964 | -2.17635 | 39204 ft | 480 kts | 104° |
| 2026-04-30 21:39 | 61.65983 | -2.03757 | 39199 ft | 480 kts | 104° |
| 2026-04-30 21:39 | 61.64993 | -1.89885 | 39222 ft | 480 kts | 104° |
| 2026-04-30 21:40 | 61.63995 | -1.75983 | 39228 ft | 479 kts | 104° |
| 2026-04-30 21:40 | 61.62980 | -1.62152 | 39233 ft | 479 kts | 104° |
| 2026-04-30 21:41 | 61.61960 | -1.48341 | 39231 ft | 479 kts | 104° |
| 2026-04-30 21:41 | 61.60916 | -1.34488 | 39225 ft | 478 kts | 104° |
| 2026-04-30 21:42 | 61.59864 | -1.20744 | 39232 ft | 478 kts | 104° |
| 2026-04-30 21:42 | 61.58792 | -1.06920 | 39240 ft | 478 kts | 104° |
| 2026-04-30 21:43 | 61.58074 | -0.97777 | 39242 ft | 477 kts | 104° |
| 2026-04-30 21:43 | 61.57647 | -0.92373 | 39242 ft | 477 kts | 104° |
| 2026-04-30 21:44 | 61.56558 | -0.78681 | 39252 ft | 477 kts | 104° |
| 2026-04-30 21:44 | 61.55448 | -0.64892 | 39251 ft | 477 kts | 105° |
| 2026-04-30 21:45 | 61.54325 | -0.51208 | 39252 ft | 477 kts | 105° |
| 2026-04-30 21:45 | 61.53191 | -0.37588 | 39251 ft | 476 kts | 105° |
| 2026-04-30 21:46 | 61.52040 | -0.23859 | 39253 ft | 476 kts | 105° |
| 2026-04-30 21:46 | 61.50878 | -0.10233 | 39252 ft | 476 kts | 105° |
| 2026-04-30 21:47 | 61.49702 | 0.03354 | 39240 ft | 476 kts | 105° |
| 2026-04-30 21:47 | 61.48510 | 0.17039 | 39246 ft | 476 kts | 105° |
| 2026-04-30 21:48 | 61.47310 | 0.30598 | 39252 ft | 475 kts | 105° |
| 2026-04-30 21:48 | 61.46088 | 0.44231 | 39254 ft | 475 kts | 105° |
| 2026-04-30 21:49 | 61.44863 | 0.57733 | 39269 ft | 475 kts | 105° |
| 2026-04-30 21:49 | 61.43602 | 0.71316 | 39251 ft | 475 kts | 105° |
| 2026-04-30 21:50 | 61.42341 | 0.84815 | 39267 ft | 475 kts | 105° |
| 2026-04-30 21:50 | 61.41065 | 0.98430 | 39275 ft | 475 kts | 105° |
| 2026-04-30 21:51 | 61.39785 | 1.11888 | 39284 ft | 475 kts | 106° |
| 2026-04-30 21:51 | 61.38474 | 1.25448 | 39296 ft | 475 kts | 106° |
| 2026-04-30 21:52 | 61.37163 | 1.38882 | 39291 ft | 475 kts | 106° |
| 2026-04-30 21:52 | 61.35841 | 1.52456 | 39271 ft | 475 kts | 106° |
| 2026-04-30 21:53 | 61.34511 | 1.65917 | 39283 ft | 475 kts | 106° |
| 2026-04-30 21:53 | 61.33155 | 1.79342 | 39295 ft | 475 kts | 106° |
| 2026-04-30 21:54 | 61.31776 | 1.92876 | 39283 ft | 475 kts | 106° |
| 2026-04-30 21:54 | 61.30397 | 2.06276 | 39298 ft | 475 kts | 106° |
| 2026-04-30 21:55 | 61.29004 | 2.19652 | 39299 ft | 475 kts | 106° |
| 2026-04-30 21:55 | 61.27599 | 2.33127 | 39320 ft | 474 kts | 106° |
| 2026-04-30 21:56 | 61.26194 | 2.46420 | 39327 ft | 474 kts | 106° |
| 2026-04-30 21:56 | 61.24754 | 2.59857 | 39339 ft | 474 kts | 107° |
| 2026-04-30 21:57 | 61.23305 | 2.73179 | 39342 ft | 474 kts | 107° |
| 2026-04-30 21:57 | 61.21849 | 2.86478 | 39340 ft | 473 kts | 107° |
| 2026-04-30 21:58 | 61.20383 | 2.99815 | 39343 ft | 472 kts | 107° |
| 2026-04-30 21:58 | 61.18908 | 3.13032 | 39344 ft | 472 kts | 107° |
| 2026-04-30 21:59 | 61.17414 | 3.26342 | 39360 ft | 472 kts | 107° |
| 2026-04-30 22:00 | 61.15165 | 3.46149 | 39357 ft | 471 kts | 107° |
| 2026-04-30 22:00 | 61.12881 | 3.65858 | 39366 ft | 471 kts | 108° |
| 2026-04-30 22:01 | 61.11345 | 3.79003 | 39372 ft | 470 kts | 108° |
| 2026-04-30 22:01 | 61.09793 | 3.92162 | 39398 ft | 470 kts | 108° |
| 2026-04-30 22:02 | 61.08231 | 4.05287 | 39396 ft | 469 kts | 108° |
| 2026-04-30 22:02 | 61.06661 | 4.18357 | 39384 ft | 469 kts | 108° |
| 2026-04-30 22:03 | 61.05086 | 4.31378 | 39399 ft | 468 kts | 108° |
| 2026-04-30 22:03 | 61.03501 | 4.44359 | 39414 ft | 468 kts | 108° |
| 2026-04-30 22:04 | 61.01888 | 4.57438 | 39413 ft | 468 kts | 108° |
| 2026-04-30 22:05 | 60.99462 | 4.76866 | 39425 ft | 467 kts | 108° |
| 2026-04-30 22:05 | 60.97833 | 4.89805 | 39416 ft | 467 kts | 108° |
| 2026-04-30 22:06 | 60.96198 | 5.02740 | 39419 ft | 467 kts | 108° |
| 2026-04-30 22:06 | 60.93716 | 5.22077 | 39402 ft | 466 kts | 108° |
| 2026-04-30 22:07 | 60.92038 | 5.34983 | 39408 ft | 465 kts | 108° |
| 2026-04-30 22:07 | 60.90355 | 5.47746 | 39412 ft | 465 kts | 108° |
| 2026-04-30 22:08 | 60.88647 | 5.60615 | 39405 ft | 465 kts | 108° |
| 2026-04-30 22:08 | 60.86926 | 5.73407 | 39407 ft | 465 kts | 108° |
| 2026-04-30 22:09 | 60.85225 | 5.86175 | 39405 ft | 464 kts | 108° |
| 2026-04-30 22:09 | 60.83524 | 5.98919 | 39407 ft | 465 kts | 108° |
| 2026-04-30 22:10 | 60.81783 | 6.11727 | 39402 ft | 465 kts | 108° |
| 2026-04-30 22:10 | 60.80030 | 6.24448 | 39404 ft | 465 kts | 108° |
| 2026-04-30 22:11 | 60.77376 | 6.43566 | 39402 ft | 464 kts | 108° |
| 2026-04-30 22:12 | 60.75600 | 6.56198 | 39401 ft | 464 kts | 109° |
| 2026-04-30 22:12 | 60.73796 | 6.68932 | 39402 ft | 464 kts | 109° |
| 2026-04-30 22:13 | 60.71998 | 6.81591 | 39400 ft | 464 kts | 108° |
| 2026-04-30 22:13 | 60.70184 | 6.94251 | 39395 ft | 465 kts | 108° |
| 2026-04-30 22:14 | 60.68356 | 7.06904 | 39395 ft | 465 kts | 109° |
| 2026-04-30 22:14 | 60.66501 | 7.19594 | 39410 ft | 465 kts | 109° |
| 2026-04-30 22:15 | 60.64645 | 7.32197 | 38886 ft | 464 kts | 109° |
| 2026-04-30 22:15 | 60.63716 | 7.38492 | 38257 ft | 465 kts | 109° |
| 2026-04-30 22:15 | 60.62778 | 7.44824 | 37643 ft | 466 kts | 109° |
| 2026-04-30 22:15 | 60.61844 | 7.51097 | 37052 ft | 469 kts | 109° |
| 2026-04-30 22:16 | 60.60894 | 7.57453 | 36465 ft | 472 kts | 109° |
| 2026-04-30 22:16 | 60.59926 | 7.63906 | 35904 ft | 474 kts | 109° |
| 2026-04-30 22:17 | 60.57014 | 7.83200 | 34260 ft | 479 kts | 109° |
| 2026-04-30 22:17 | 60.56022 | 7.89702 | 33650 ft | 477 kts | 109° |
| 2026-04-30 22:17 | 60.54061 | 8.02512 | 32470 ft | 469 kts | 109° |
| 2026-04-30 22:18 | 60.53103 | 8.08753 | 31910 ft | 465 kts | 109° |
| 2026-04-30 22:18 | 60.51189 | 8.21149 | 30799 ft | 457 kts | 109° |
| 2026-04-30 22:19 | 60.49286 | 8.33338 | 29607 ft | 450 kts | 109° |
| 2026-04-30 22:19 | 60.48335 | 8.39409 | 28977 ft | 447 kts | 109° |
| 2026-04-30 22:19 | 60.46470 | 8.51269 | 27781 ft | 439 kts | 109° |
| 2026-04-30 22:20 | 60.45549 | 8.57099 | 27206 ft | 431 kts | 109° |
| 2026-04-30 22:20 | 60.44031 | 8.66648 | 26259 ft | 423 kts | 110° |
| 2026-04-30 22:20 | 60.43133 | 8.72270 | 25718 ft | 420 kts | 110° |
| 2026-04-30 22:21 | 60.42229 | 8.77906 | 25182 ft | 417 kts | 110° |
| 2026-04-30 22:21 | 60.41342 | 8.83430 | 24661 ft | 414 kts | 110° |
| 2026-04-30 22:21 | 60.40446 | 8.88982 | 24146 ft | 411 kts | 110° |
| 2026-04-30 22:21 | 60.39559 | 8.94469 | 23565 ft | 408 kts | 110° |
| 2026-04-30 22:22 | 60.38678 | 8.99912 | 22961 ft | 405 kts | 110° |
| 2026-04-30 22:22 | 60.37810 | 9.05255 | 22380 ft | 402 kts | 110° |
| 2026-04-30 22:22 | 60.36934 | 9.10611 | 21805 ft | 399 kts | 110° |
| 2026-04-30 22:22 | 60.36063 | 9.15920 | 21224 ft | 396 kts | 110° |
| 2026-04-30 22:23 | 60.35200 | 9.21157 | 20665 ft | 393 kts | 111° |
| 2026-04-30 22:23 | 60.34334 | 9.26412 | 20119 ft | 391 kts | 111° |
| 2026-04-30 22:23 | 60.33476 | 9.31605 | 19583 ft | 385 kts | 111° |
| 2026-04-30 22:23 | 60.32639 | 9.36665 | 19059 ft | 379 kts | 111° |
| 2026-04-30 22:24 | 60.31986 | 9.41821 | 18529 ft | 375 kts | 104° |
| 2026-04-30 22:24 | 60.31448 | 9.46891 | 17919 ft | 369 kts | 103° |
| 2026-04-30 22:24 | 60.30915 | 9.51926 | 17338 ft | 364 kts | 104° |
| 2026-04-30 22:24 | 60.30388 | 9.56897 | 16772 ft | 360 kts | 104° |
| 2026-04-30 22:25 | 60.29871 | 9.61754 | 16215 ft | 356 kts | 104° |
| 2026-04-30 22:25 | 60.29355 | 9.66608 | 15665 ft | 352 kts | 105° |
| 2026-04-30 22:25 | 60.28837 | 9.71427 | 15114 ft | 349 kts | 105° |
| 2026-04-30 22:25 | 60.28324 | 9.76186 | 14582 ft | 344 kts | 105° |
| 2026-04-30 22:26 | 60.27172 | 9.85400 | 13477 ft | 336 kts | 116° |
| 2026-04-30 22:26 | 60.26087 | 9.89514 | 12912 ft | 328 kts | 129° |
| 2026-04-30 22:26 | 60.24751 | 9.93205 | 12348 ft | 324 kts | 131° |
| 2026-04-30 22:27 | 60.23426 | 9.96842 | 11789 ft | 321 kts | 130° |
| 2026-04-30 22:27 | 60.22116 | 10.00449 | 11377 ft | 315 kts | 130° |
| 2026-04-30 22:27 | 60.19544 | 10.07515 | 10916 ft | 311 kts | 130° |
| 2026-04-30 22:28 | 60.16986 | 10.14491 | 10484 ft | 310 kts | 130° |
| 2026-04-30 22:28 | 60.15736 | 10.17902 | 10324 ft | 298 kts | 130° |
| 2026-04-30 22:29 | 60.11393 | 10.26057 | 10314 ft | 307 kts | 128° |
| 2026-04-30 22:29 | 60.10312 | 10.29770 | 10206 ft | 313 kts | 119° |
| 2026-04-30 22:30 | 60.06739 | 10.45511 | 8545 ft | 306 kts | 118° |
| 2026-04-30 22:31 | 60.03804 | 10.56675 | 7346 ft | 299 kts | 121° |
| 2026-04-30 22:32 | 60.00826 | 10.67535 | 6152 ft | 293 kts | 120° |
| 2026-04-30 22:32 | 59.98897 | 10.74581 | 5355 ft | 285 kts | 120° |
| 2026-04-30 22:33 | 59.97965 | 10.85042 | 5020 ft | 254 kts | 75° |
| 2026-04-30 22:33 | 59.98806 | 10.91834 | 5017 ft | 240 kts | 75° |
| 2026-04-30 22:34 | 60.02066 | 10.97973 | 4014 ft | 220 kts | 12° |
| 2026-04-30 22:35 | 60.05001 | 10.99637 | 3440 ft | 217 kts | 13° |
| 2026-04-30 22:36 | 60.10724 | 11.02911 | 2301 ft | 203 kts | 12° |
| 2026-04-30 22:36 | 60.12034 | 11.03664 | 2027 ft | 188 kts | 12° |
| 2026-04-30 22:37 | 60.15425 | 11.05609 | 1332 ft | 150 kts | 14° |
| 2026-04-30 22:37 | 60.16386 | 11.06160 | 1150 ft | 143 kts | 15° |
| 2026-04-30 22:37 | 60.18268 | 11.07233 | 776 ft | 139 kts | 17° |
| 2026-04-30 22:38 | 60.19906 | 11.08184 | 680 ft | 87 kts | 16° |
| 2026-04-30 22:38 | 60.20238 | 11.08685 | 684 ft | 4 kts | 105° |
| 2026-04-30 22:39 | 60.20237 | 11.08694 | 685 ft | 0 kts | 106° |
| 2026-04-30 22:39 | 60.20192 | 11.08742 | 685 ft | 17 kts | 182° |
| 2026-04-30 22:40 | 60.19871 | 11.08612 | 679 ft | 13 kts | 132° |
| 2026-04-30 22:41 | 60.19818 | 11.08958 | 685 ft | 8 kts | 106° |
| 2026-04-30 22:41 | 60.19775 | 11.09259 | 689 ft | 16 kts | 106° |
| 2026-04-30 22:42 | 60.19738 | 11.09879 | 688 ft | 7 kts | 104° |
| 2026-04-30 22:43 | 60.19722 | 11.09989 | 684 ft | 0 kts | 105° |
| 2026-04-30 22:43 | 60.19722 | 11.09992 | 684 ft | 0 kts | 105° |